createdAt,value
2023-05-13T00:00:45.689Z,3.03
2023-05-13T00:02:49.893Z,3.20
2023-05-13T00:04:52.815Z,3.00
2023-05-13T00:06:55.726Z,3.10
2023-05-13T00:08:59.253Z,3.30
2023-05-13T00:11:02.457Z,3.40
2023-05-13T00:13:05.238Z,2.80
2023-05-13T00:15:08.676Z,3.07
2023-05-13T00:17:11.431Z,3.30
2023-05-13T00:19:15.518Z,3.10
2023-05-13T00:21:18.398Z,3.20
2023-05-13T00:23:21.662Z,3.90
2023-05-13T00:25:24.473Z,3.00
2023-05-13T00:27:27.313Z,3.67
2023-05-13T00:29:31.497Z,3.50
2023-05-13T00:31:34.776Z,2.87
2023-05-13T00:33:37.654Z,3.40
2023-05-13T00:35:41.823Z,2.80
2023-05-13T00:37:44.996Z,3.50
2023-05-13T00:39:48.483Z,3.20
2023-05-13T00:41:51.296Z,3.60
2023-05-13T00:43:55.736Z,3.43
2023-05-13T00:45:58.614Z,3.23
2023-05-13T00:48:01.709Z,3.03
2023-05-13T00:50:04.860Z,3.37
2023-05-13T00:52:08.988Z,3.30
2023-05-13T00:54:11.755Z,3.90
2023-05-13T00:56:15.596Z,3.43
2023-05-13T00:58:18.454Z,3.07
2023-05-13T01:00:21.532Z,3.20
2023-05-13T01:02:27.448Z,3.07
2023-05-13T01:04:34.720Z,2.90
2023-05-13T01:06:41.762Z,3.20
2023-05-13T01:08:59.432Z,3.50
2023-05-13T01:11:05.078Z,3.20
2023-05-13T01:13:09.761Z,3.13
2023-05-13T01:15:15.259Z,3.37
2023-05-13T01:17:20.037Z,3.13
2023-05-13T01:19:29.267Z,3.57
2023-05-13T01:21:35.872Z,3.30
2023-05-13T01:23:38.734Z,3.20
2023-05-13T01:25:42.001Z,3.03
2023-05-13T01:27:44.802Z,3.20
2023-05-13T01:29:47.568Z,3.00
2023-05-13T01:31:50.715Z,3.47
2023-05-13T01:33:53.845Z,3.10
2023-05-13T01:35:56.913Z,3.30
2023-05-13T01:38:01.164Z,2.90
2023-05-13T01:40:12.175Z,3.17
2023-05-13T01:42:20.524Z,2.67
2023-05-13T01:44:23.262Z,2.80
2023-05-13T01:46:26.068Z,2.60
2023-05-13T01:48:29.287Z,2.80
2023-05-13T01:50:32.172Z,3.10
2023-05-13T01:52:34.984Z,2.93
2023-05-13T01:54:39.060Z,2.70
2023-05-13T01:56:42.291Z,2.90
2023-05-13T01:58:45.046Z,3.47
2023-05-13T02:00:47.827Z,3.03
2023-05-13T02:02:50.650Z,2.93
2023-05-13T02:04:53.888Z,2.80
2023-05-13T02:06:56.695Z,3.00
2023-05-13T02:08:59.534Z,2.70
2023-05-13T02:11:06.532Z,2.80
2023-05-13T02:13:09.593Z,2.70
2023-05-13T02:15:12.706Z,2.63
2023-05-13T02:17:15.484Z,2.60
2023-05-13T02:19:19.847Z,2.90
2023-05-13T02:21:22.670Z,2.87
2023-05-13T02:23:26.034Z,2.70
2023-05-13T02:25:29.069Z,2.60
2023-05-13T02:27:34.181Z,2.40
2023-05-13T02:29:37.661Z,2.73
2023-05-13T02:31:43.217Z,2.87
2023-05-13T02:33:46.546Z,3.20
2023-05-13T02:35:49.826Z,3.10
2023-05-13T02:37:52.571Z,2.70
2023-05-13T02:39:55.317Z,2.80
2023-05-13T02:41:59.863Z,2.77
2023-05-13T02:44:07.412Z,2.40
2023-05-13T02:46:13.565Z,2.90
2023-05-13T02:48:19.748Z,2.83
2023-05-13T02:50:24.727Z,2.53
2023-05-13T02:52:27.822Z,2.90
2023-05-13T02:54:30.590Z,2.77
2023-05-13T02:56:33.336Z,3.00
2023-05-13T02:58:36.248Z,3.10
2023-05-13T03:00:40.722Z,2.80
2023-05-13T03:02:43.605Z,2.77
2023-05-13T03:04:46.514Z,2.50
2023-05-13T03:06:49.436Z,2.70
2023-05-13T03:08:52.610Z,2.73
2023-05-13T03:10:55.495Z,2.70
2023-05-13T03:12:58.252Z,2.60
2023-05-13T03:15:00.997Z,2.37
2023-05-13T03:17:05.614Z,3.13
2023-05-13T03:19:08.416Z,2.83
2023-05-13T03:21:11.207Z,2.60
2023-05-13T03:23:14.096Z,2.57
2023-05-13T03:25:18.466Z,2.73
2023-05-13T03:27:21.315Z,2.50
2023-05-13T03:29:24.163Z,2.57
2023-05-13T03:31:27.245Z,2.77
2023-05-13T03:33:31.910Z,2.57
2023-05-13T03:35:34.646Z,2.53
2023-05-13T03:37:37.461Z,2.80
2023-05-13T03:39:40.305Z,2.73
2023-05-13T03:41:43.494Z,2.30
2023-05-13T03:43:47.184Z,2.50
2023-05-13T03:45:51.510Z,2.70
2023-05-13T03:47:54.275Z,2.47
2023-05-13T03:49:58.747Z,2.60
2023-05-13T03:52:01.629Z,2.30
2023-05-13T03:54:04.700Z,2.63
2023-05-13T03:56:07.591Z,2.83
2023-05-13T03:58:12.711Z,2.23
2023-05-13T04:00:18.177Z,2.77
2023-05-13T04:02:24.322Z,2.70
2023-05-13T04:04:27.279Z,2.37
2023-05-13T04:06:31.774Z,2.90
2023-05-13T04:08:34.529Z,2.50
2023-05-13T04:10:37.283Z,2.20
2023-05-13T04:12:40.497Z,2.20
2023-05-13T04:14:43.208Z,2.30
2023-05-13T04:16:46.001Z,2.40
2023-05-13T04:18:49.333Z,2.50
2023-05-13T04:20:52.091Z,2.47
2023-05-13T04:22:56.212Z,2.07
2023-05-13T04:24:58.939Z,2.70
2023-05-13T04:27:02.142Z,2.50
2023-05-13T04:29:05.202Z,2.60
2023-05-13T04:31:08.011Z,2.20
2023-05-13T04:33:10.830Z,2.70
2023-05-13T04:35:13.901Z,2.30
2023-05-13T04:37:16.699Z,2.50
2023-05-13T04:39:20.932Z,2.43
2023-05-13T04:41:23.711Z,2.50
2023-05-13T04:43:26.870Z,2.40
2023-05-13T04:45:31.648Z,2.30
2023-05-13T04:47:35.445Z,2.40
2023-05-13T04:49:38.758Z,2.20
2023-05-13T04:51:42.018Z,2.50
2023-05-13T04:53:45.241Z,2.20
2023-05-13T04:55:50.089Z,2.53
2023-05-13T04:57:52.870Z,2.80
2023-05-13T04:59:56.345Z,2.30
2023-05-13T05:01:59.596Z,2.57
2023-05-13T05:04:03.064Z,2.30
2023-05-13T05:06:05.941Z,2.77
2023-05-13T05:08:08.682Z,2.30
2023-05-13T05:10:12.091Z,2.63
2023-05-13T05:12:17.001Z,2.50
2023-05-13T05:14:20.268Z,2.40
2023-05-13T05:16:23.437Z,2.30
2023-05-13T05:18:29.858Z,2.70
2023-05-13T05:20:33.140Z,2.50
2023-05-13T05:22:36.345Z,2.27
2023-05-13T05:24:39.158Z,2.50
2023-05-13T05:26:43.069Z,2.43
2023-05-13T05:28:47.253Z,2.40
2023-05-13T05:30:52.555Z,2.60
2023-05-13T05:32:55.432Z,2.47
2023-05-13T05:35:02.500Z,2.40
2023-05-13T05:37:24.106Z,2.30
2023-05-13T05:39:27.394Z,2.80
2023-05-13T05:41:30.168Z,2.07
2023-05-13T05:43:35.174Z,2.23
2023-05-13T05:45:39.554Z,2.23
2023-05-13T05:47:43.358Z,2.00
2023-05-13T05:49:46.876Z,2.40
2023-05-13T05:51:49.713Z,2.60
2023-05-13T05:53:52.561Z,2.50
2023-05-13T05:55:56.236Z,2.70
2023-05-13T05:58:03.850Z,2.50
2023-05-13T06:00:07.950Z,2.37
2023-05-13T06:02:13.170Z,2.20
2023-05-13T06:04:16.139Z,2.20
2023-05-13T06:06:18.969Z,2.30
2023-05-13T06:08:22.753Z,2.30
2023-05-13T06:10:25.513Z,2.40
2023-05-13T06:12:28.267Z,2.60
2023-05-13T06:14:31.486Z,2.57
2023-05-13T06:16:34.330Z,2.63
2023-05-13T06:18:38.508Z,2.50
2023-05-13T06:20:44.402Z,2.40
2023-05-13T06:22:48.232Z,2.50
2023-05-13T06:24:51.009Z,2.30
2023-05-13T06:26:54.047Z,2.57
2023-05-13T06:28:56.811Z,2.63
2023-05-13T06:30:59.574Z,2.13
2023-05-13T06:33:03.160Z,2.63
2023-05-13T06:35:08.372Z,2.30
2023-05-13T06:37:11.085Z,2.30
2023-05-13T06:39:13.942Z,2.30
2023-05-13T06:41:17.083Z,2.30
2023-05-13T06:43:19.832Z,2.40
2023-05-13T06:45:23.640Z,2.47
2023-05-13T06:47:26.950Z,2.47
2023-05-13T06:49:29.699Z,2.20
2023-05-13T06:51:34.916Z,2.60
2023-05-13T06:53:38.005Z,2.30
2023-05-13T06:55:42.624Z,2.50
2023-05-13T06:57:46.842Z,2.03
2023-05-13T06:59:50.113Z,2.27
2023-05-13T07:01:52.882Z,2.30
2023-05-13T07:03:55.717Z,2.37
2023-05-13T07:05:59.315Z,1.90
2023-05-13T07:08:06.955Z,1.97
2023-05-13T07:16:13.097Z,2.60
2023-05-13T07:18:16.008Z,2.43
2023-05-13T07:20:22.511Z,2.30
2023-05-13T07:22:26.043Z,2.10
2023-05-13T07:24:30.665Z,2.30
2023-05-13T07:26:33.447Z,2.13
2023-05-13T07:28:36.604Z,2.40
2023-05-13T07:30:41.679Z,2.30
2023-05-13T07:32:44.532Z,1.90
2023-05-13T07:34:47.738Z,2.30
2023-05-13T07:36:50.507Z,2.80
2023-05-13T07:38:53.582Z,2.30
2023-05-13T07:41:00.603Z,2.53
2023-05-13T07:43:03.352Z,2.43
2023-05-13T07:45:07.338Z,2.37
2023-05-13T07:47:09.858Z,2.33
2023-05-13T07:49:13.013Z,2.30
2023-05-13T07:51:16.305Z,2.47
2023-05-13T07:53:19.956Z,2.50
2023-05-13T07:55:23.976Z,2.33
2023-05-13T07:57:28.116Z,2.37
2023-05-13T07:59:31.083Z,2.30
2023-05-13T08:01:34.354Z,2.13
2023-05-13T08:03:37.334Z,2.20
2023-05-13T08:05:40.438Z,2.50
2023-05-13T08:07:43.541Z,2.37
2023-05-13T08:09:46.363Z,2.27
2023-05-13T08:11:49.189Z,2.50
2023-05-13T08:13:53.259Z,2.33
2023-05-13T08:15:56.103Z,2.50
2023-05-13T08:17:58.974Z,2.00
2023-05-13T08:20:02.206Z,2.00
2023-05-13T08:22:05.447Z,2.70
2023-05-13T08:24:08.472Z,2.20
2023-05-13T08:26:11.681Z,2.17
2023-05-13T08:28:14.429Z,2.30
2023-05-13T08:30:18.748Z,2.20
2023-05-13T08:32:21.991Z,2.33
2023-05-13T08:34:24.815Z,2.20
2023-05-13T08:36:27.632Z,2.60
2023-05-13T08:38:30.399Z,2.57
2023-05-13T08:40:33.707Z,2.40
2023-05-13T08:42:39.921Z,2.23
2023-05-13T08:44:43.258Z,2.33
2023-05-13T08:46:55.508Z,2.67
2023-05-13T08:48:58.262Z,2.63
2023-05-13T08:51:02.070Z,2.20
2023-05-13T08:53:04.885Z,2.30
2023-05-13T08:55:09.973Z,2.30
2023-05-13T08:57:14.922Z,2.50
2023-05-13T08:59:18.292Z,2.50
2023-05-13T09:01:21.573Z,2.67
2023-05-13T09:03:25.683Z,2.20
2023-05-13T09:05:28.756Z,2.10
2023-05-13T09:07:32.205Z,2.57
2023-05-13T09:09:35.034Z,2.43
2023-05-13T09:11:41.442Z,2.20
2023-05-13T09:13:45.943Z,2.00
2023-05-13T09:15:48.909Z,2.13
2023-05-13T09:17:53.320Z,2.33
2023-05-13T09:19:59.089Z,2.40
2023-05-13T09:22:02.719Z,2.40
2023-05-13T09:24:11.487Z,2.60
2023-05-13T09:26:28.259Z,2.43
2023-05-13T09:28:31.137Z,2.60
2023-05-13T09:30:35.071Z,2.33
2023-05-13T09:32:38.766Z,2.20
2023-05-13T09:34:44.005Z,2.57
2023-05-13T09:36:56.665Z,2.30
2023-05-13T09:39:00.031Z,2.60
2023-05-13T09:41:03.636Z,2.30
2023-05-13T09:43:07.355Z,2.33
2023-05-13T09:45:11.779Z,2.30
2023-05-13T09:47:14.897Z,2.27
2023-05-13T09:49:18.804Z,2.27
2023-05-13T09:51:27.061Z,2.03
2023-05-13T09:53:32.474Z,2.00
2023-05-13T09:55:35.341Z,2.40
2023-05-13T09:57:39.232Z,2.67
2023-05-13T09:59:42.227Z,2.20
2023-05-13T10:01:45.447Z,2.90
2023-05-13T10:03:52.645Z,2.00
2023-05-13T10:05:55.875Z,2.50
2023-05-13T10:07:58.650Z,2.37
2023-05-13T10:10:04.225Z,2.30
2023-05-13T10:12:08.836Z,2.50
2023-05-13T10:14:11.649Z,1.87
2023-05-13T10:16:18.565Z,2.40
2023-05-13T10:18:22.219Z,2.17
2023-05-13T10:20:26.197Z,2.30
2023-05-13T10:22:30.357Z,2.33
2023-05-13T10:24:33.166Z,2.37
2023-05-13T10:26:37.332Z,2.37
2023-05-13T10:28:40.496Z,2.20
2023-05-13T10:30:43.532Z,2.00
2023-05-13T10:32:46.316Z,2.10
2023-05-13T10:34:50.501Z,2.30
2023-05-13T10:37:03.723Z,2.63
2023-05-13T10:39:23.567Z,2.47
2023-05-13T10:41:40.241Z,1.90
2023-05-13T10:43:42.977Z,2.73
2023-05-13T10:45:46.912Z,2.27
2023-05-13T10:47:51.198Z,2.27
2023-05-13T10:49:54.053Z,2.20
2023-05-13T10:51:59.721Z,2.20
2023-05-13T10:54:03.741Z,2.07
2023-05-13T10:56:08.312Z,2.50
2023-05-13T10:58:13.599Z,2.40
2023-05-13T11:00:18.005Z,2.13
2023-05-13T11:02:22.583Z,2.60
2023-05-13T11:04:25.467Z,2.40
2023-05-13T11:06:33.476Z,2.67
2023-05-13T11:08:38.495Z,2.30
2023-05-13T11:10:41.802Z,2.20
2023-05-13T11:12:50.550Z,2.30
2023-05-13T11:14:58.063Z,2.70
2023-05-13T11:17:09.916Z,2.20
2023-05-13T11:19:21.526Z,2.10
2023-05-13T11:21:31.484Z,2.00
2023-05-13T11:23:34.819Z,2.23
2023-05-13T11:25:38.035Z,2.60
2023-05-13T11:27:41.650Z,2.50
2023-05-13T11:29:49.809Z,2.00
2023-05-13T11:31:58.474Z,2.43
2023-05-13T11:34:07.324Z,2.27
2023-05-13T11:36:10.111Z,2.63
2023-05-13T11:38:15.864Z,2.07
2023-05-13T11:40:24.097Z,2.50
2023-05-13T11:42:26.949Z,2.27
2023-05-13T11:44:30.884Z,2.10
2023-05-13T11:46:55.013Z,2.30
2023-05-13T11:48:59.052Z,2.33
2023-05-13T11:51:02.240Z,2.70
2023-05-13T11:53:05.391Z,2.10
2023-05-13T11:55:13.759Z,2.30
2023-05-13T11:57:24.758Z,2.30
2023-05-13T11:59:35.817Z,1.90
2023-05-13T12:01:43.255Z,2.43
2023-05-13T12:03:47.504Z,2.33
2023-05-13T12:05:51.931Z,2.17
2023-05-13T12:07:58.153Z,2.60
2023-05-13T12:10:37.971Z,2.60
2023-05-13T12:12:41.409Z,2.37
2023-05-13T12:14:57.348Z,2.30
2023-05-13T12:17:00.687Z,2.17
2023-05-13T12:19:06.161Z,2.13
2023-05-13T12:21:17.551Z,2.60
2023-05-13T12:23:20.749Z,2.30
2023-05-13T12:25:39.978Z,2.50
2023-05-13T12:27:46.148Z,2.20
2023-05-13T12:29:52.205Z,2.20
2023-05-13T12:32:12.825Z,2.60
2023-05-13T12:34:22.768Z,2.10
2023-05-13T12:36:43.640Z,2.50
2023-05-13T12:38:59.880Z,2.50
2023-05-13T12:41:11.899Z,2.50
2023-05-13T12:43:17.086Z,2.40
2023-05-13T12:45:23.912Z,1.93
2023-05-13T12:47:27.927Z,1.97
2023-05-13T12:49:31.118Z,2.47
2023-05-13T12:51:35.269Z,2.27
2023-05-13T12:53:38.082Z,2.23
2023-05-13T12:55:42.287Z,2.67
2023-05-13T12:57:45.874Z,2.40
2023-05-13T12:59:48.769Z,2.03
2023-05-13T13:01:52.183Z,2.33
2023-05-13T13:03:55.116Z,2.60
2023-05-13T13:06:02.101Z,2.50
2023-05-13T13:08:09.910Z,1.80
2023-05-13T13:10:13.402Z,2.17
2023-05-13T13:12:16.542Z,2.10
2023-05-13T13:14:19.868Z,2.30
2023-05-13T13:16:24.082Z,2.40
2023-05-13T13:18:27.148Z,2.17
2023-05-13T13:20:30.528Z,2.50
2023-05-13T13:22:34.092Z,2.37
2023-05-13T13:24:38.438Z,2.07
2023-05-13T13:26:43.008Z,2.50
2023-05-13T13:28:45.924Z,2.00
2023-05-13T13:30:48.772Z,2.20
2023-05-13T13:32:52.008Z,2.47
2023-05-13T13:34:54.860Z,2.20
2023-05-13T13:36:58.166Z,2.20
2023-05-13T13:39:01.550Z,1.97
2023-05-13T13:41:06.779Z,2.27
2023-05-13T13:43:09.905Z,2.20
2023-05-13T13:45:13.910Z,2.50
2023-05-13T13:47:18.807Z,2.23
2023-05-13T13:49:28.173Z,2.67
2023-05-13T13:51:32.249Z,2.10
2023-05-13T13:53:36.259Z,2.40
2023-05-13T13:55:39.893Z,2.60
2023-05-13T13:57:46.518Z,2.47
2023-05-13T13:59:50.805Z,2.07
2023-05-13T14:01:54.279Z,2.43
2023-05-13T14:04:11.476Z,2.30
2023-05-13T14:06:14.246Z,2.00
2023-05-13T14:08:17.869Z,2.00
2023-05-13T14:10:21.333Z,2.70
2023-05-13T14:12:25.531Z,2.17
2023-05-13T14:14:32.724Z,2.30
2023-05-13T14:16:36.383Z,2.50
2023-05-13T14:18:40.071Z,2.10
2023-05-13T14:20:43.446Z,2.27
2023-05-13T14:22:46.735Z,2.33
2023-05-13T14:24:49.558Z,2.30
2023-05-13T14:26:52.753Z,2.33
2023-05-13T14:28:56.866Z,2.33
2023-05-13T14:31:00.953Z,2.13
2023-05-13T14:33:10.113Z,2.20
2023-05-13T14:35:13.567Z,2.07
2023-05-13T14:37:16.396Z,2.40
2023-05-13T14:39:20.101Z,1.90
2023-05-13T14:41:24.180Z,2.70
2023-05-13T14:43:27.033Z,2.10
2023-05-13T14:45:29.817Z,2.40
2023-05-13T14:47:33.941Z,2.70
2023-05-13T14:49:36.855Z,2.23
2023-05-13T14:51:39.632Z,2.30
2023-05-13T14:53:43.364Z,2.40
2023-05-13T14:55:46.492Z,2.40
2023-05-13T14:57:52.128Z,2.60
2023-05-13T14:59:54.908Z,2.27
2023-05-13T15:01:58.102Z,2.13
2023-05-13T15:04:02.340Z,2.27
2023-05-13T15:06:05.608Z,2.53
2023-05-13T15:08:15.237Z,2.57
2023-05-13T15:10:18.223Z,2.20
2023-05-13T15:12:21.907Z,2.37
2023-05-13T15:14:25.892Z,2.60
2023-05-13T15:16:28.952Z,2.20
2023-05-13T15:18:32.345Z,2.50
2023-05-13T15:20:37.390Z,2.40
2023-05-13T15:22:40.488Z,2.40
2023-05-13T15:24:43.486Z,2.13
2023-05-13T15:26:46.901Z,2.07
2023-05-13T15:28:49.811Z,2.33
2023-05-13T15:30:52.675Z,2.20
2023-05-13T15:32:56.225Z,2.50
2023-05-13T15:34:59.579Z,2.13
2023-05-13T15:37:04.238Z,1.90
2023-05-13T15:39:08.681Z,2.60
2023-05-13T15:41:11.964Z,2.30
2023-05-13T15:43:14.846Z,2.17
2023-05-13T15:45:18.233Z,2.67
2023-05-13T15:47:21.378Z,2.43
2023-05-13T15:49:24.191Z,2.10
2023-05-13T15:51:27.500Z,2.30
2023-05-13T15:53:31.783Z,2.30
2023-05-13T15:55:37.006Z,2.17
2023-05-13T15:57:40.842Z,2.03
2023-05-13T15:59:43.604Z,2.23
2023-05-13T16:01:47.750Z,2.60
2023-05-13T16:03:51.086Z,2.47
2023-05-13T16:05:53.960Z,2.53
2023-05-13T16:07:57.754Z,2.20
2023-05-13T16:10:02.472Z,2.20
2023-05-13T16:12:05.387Z,2.10
2023-05-13T16:14:08.788Z,2.40
2023-05-13T16:16:12.765Z,2.10
2023-05-13T16:18:16.259Z,2.30
2023-05-13T16:20:20.575Z,2.50
2023-05-13T16:22:25.596Z,2.60
2023-05-13T16:24:32.685Z,2.10
2023-05-13T16:26:37.303Z,2.13
2023-05-13T16:28:40.660Z,2.17
2023-05-13T16:30:44.404Z,1.90
2023-05-13T16:32:48.857Z,1.97
2023-05-13T16:34:52.594Z,2.00
2023-05-13T16:36:57.847Z,2.10
2023-05-13T16:39:01.731Z,1.90
2023-05-13T16:41:05.731Z,2.00
2023-05-13T16:43:09.793Z,2.30
2023-05-13T16:45:12.677Z,2.50
2023-05-13T16:47:15.972Z,2.33
2023-05-13T16:49:18.803Z,2.13
2023-05-13T16:51:21.963Z,2.40
2023-05-13T16:53:28.344Z,2.47
2023-05-13T16:55:32.119Z,2.60
2023-05-13T16:57:34.919Z,2.00
2023-05-13T16:59:40.639Z,2.23
2023-05-13T17:01:43.560Z,2.40
2023-05-13T17:03:50.215Z,2.37
2023-05-13T17:05:53.020Z,2.10
2023-05-13T17:07:55.758Z,2.20
2023-05-13T17:09:58.549Z,2.47
2023-05-13T17:12:01.279Z,2.63
2023-05-13T17:14:04.251Z,2.30
2023-05-13T17:16:08.795Z,2.30
2023-05-13T17:18:11.960Z,2.00
2023-05-13T17:20:14.701Z,2.30
2023-05-13T17:22:17.480Z,2.57
2023-05-13T17:24:22.257Z,2.43
2023-05-13T17:26:26.357Z,2.10
2023-05-13T17:28:29.136Z,1.97
2023-05-13T17:30:31.933Z,2.30
2023-05-13T17:32:36.651Z,2.07
2023-05-13T17:34:40.807Z,2.30
2023-05-13T17:36:43.533Z,2.63
2023-05-13T17:38:46.358Z,2.47
2023-05-13T17:40:49.545Z,2.73
2023-05-13T17:42:52.943Z,2.40
2023-05-13T17:44:56.218Z,2.30
2023-05-13T17:46:59.484Z,2.40
2023-05-13T17:49:03.625Z,2.30
2023-05-13T17:51:06.508Z,2.33
2023-05-13T17:53:09.241Z,2.53
2023-05-13T17:55:12.358Z,2.63
2023-05-13T17:57:15.730Z,2.37
2023-05-13T17:59:18.465Z,3.10
2023-05-13T18:01:21.848Z,2.70
2023-05-13T18:03:25.237Z,3.27
2023-05-13T18:05:29.709Z,2.60
2023-05-13T18:07:32.485Z,3.30
2023-05-13T18:09:37.077Z,2.60
2023-05-13T18:11:39.902Z,2.80
2023-05-13T18:13:42.630Z,2.70
2023-05-13T18:15:45.479Z,2.63
2023-05-13T18:17:48.405Z,2.90
2023-05-13T18:19:51.525Z,2.90
2023-05-13T18:21:56.494Z,2.67
2023-05-13T18:23:59.260Z,2.53
2023-05-13T18:26:02.020Z,2.43
2023-05-13T18:28:07.635Z,2.80
2023-05-13T18:30:11.734Z,3.10
2023-05-13T18:32:14.534Z,2.87
2023-05-13T18:34:17.352Z,2.97
2023-05-13T18:36:20.609Z,2.80
2023-05-13T18:38:26.487Z,2.87
2023-05-13T18:40:29.298Z,2.60
2023-05-13T18:42:32.029Z,2.77
2023-05-13T18:44:35.263Z,2.60
2023-05-13T18:46:38.385Z,2.57
2023-05-13T18:48:41.173Z,2.90
2023-05-13T18:50:53.162Z,3.00
2023-05-13T18:52:55.975Z,3.00
2023-05-13T18:55:00.002Z,3.00
2023-05-13T18:57:02.742Z,2.40
2023-05-13T18:59:05.634Z,2.90
2023-05-13T19:01:08.966Z,3.00
2023-05-13T19:03:12.059Z,3.07
2023-05-13T19:05:15.656Z,3.03
2023-05-13T19:07:18.414Z,3.00
2023-05-13T19:09:22.440Z,2.60
2023-05-13T19:11:26.628Z,2.90
2023-05-13T19:13:46.019Z,3.50
2023-05-13T19:15:50.483Z,2.90
2023-05-13T19:17:53.448Z,2.67
2023-05-13T19:20:01.559Z,3.23
2023-05-13T19:22:05.633Z,3.00
2023-05-13T19:24:09.206Z,2.83
2023-05-13T19:26:13.613Z,2.60
2023-05-13T19:28:19.044Z,2.80
2023-05-13T19:30:21.996Z,3.00
2023-05-13T19:32:25.041Z,3.20
2023-05-13T19:34:27.794Z,3.00
2023-05-13T19:36:31.148Z,2.90
2023-05-13T19:38:33.984Z,3.23
2023-05-13T19:40:38.957Z,2.93
2023-05-13T19:42:42.227Z,2.57
2023-05-13T19:44:46.478Z,3.03
2023-05-13T19:46:49.265Z,2.70
2023-05-13T19:48:52.121Z,2.67
2023-05-13T19:50:56.166Z,3.10
2023-05-13T19:52:59.862Z,3.50
2023-05-13T19:55:02.774Z,2.90
2023-05-13T19:57:05.738Z,2.77
2023-05-13T19:59:08.822Z,3.33
2023-05-13T20:01:14.876Z,2.93
2023-05-13T20:03:18.917Z,2.97
2023-05-13T20:05:21.784Z,2.67
2023-05-13T20:07:24.915Z,3.20
2023-05-13T20:09:27.835Z,3.07
2023-05-13T20:11:31.365Z,2.90
2023-05-13T20:13:34.119Z,3.00
2023-05-13T20:15:36.889Z,2.40
2023-05-13T20:17:41.064Z,3.00
2023-05-13T20:19:43.835Z,3.10
2023-05-13T20:21:47.124Z,3.00
2023-05-13T20:23:50.004Z,2.83
2023-05-13T20:25:53.135Z,2.67
2023-05-13T20:27:55.887Z,2.93
2023-05-13T20:30:00.199Z,2.67
2023-05-13T20:32:03.273Z,2.97
2023-05-13T20:34:07.470Z,2.90
2023-05-13T20:36:10.677Z,2.57
2023-05-13T20:38:13.537Z,2.80
2023-05-13T20:40:16.662Z,3.30
2023-05-13T20:42:21.513Z,2.70
2023-05-13T20:44:24.753Z,2.97
2023-05-13T20:46:27.599Z,3.00
2023-05-13T20:48:32.111Z,3.10
2023-05-13T20:50:36.793Z,2.73
2023-05-13T20:52:39.954Z,2.80
2023-05-13T20:54:42.755Z,2.73
2023-05-13T20:56:45.536Z,2.70
2023-05-13T20:58:48.375Z,2.80
2023-05-13T21:00:52.108Z,2.90
2023-05-13T21:02:54.943Z,2.90
2023-05-13T21:04:57.740Z,2.77
2023-05-13T21:07:01.921Z,2.90
2023-05-13T21:09:05.312Z,2.83
2023-05-13T21:11:08.067Z,3.07
2023-05-13T21:13:11.234Z,2.73
2023-05-13T21:15:14.507Z,3.00
2023-05-13T21:17:21.609Z,2.87
2023-05-13T21:19:25.196Z,2.90
2023-05-13T21:21:28.092Z,2.90
2023-05-13T21:23:35.429Z,2.80
2023-05-13T21:25:38.165Z,3.30
2023-05-13T21:27:40.911Z,3.30
2023-05-13T21:29:44.121Z,2.73
2023-05-13T21:31:50.557Z,3.00
2023-05-13T21:33:58.816Z,2.70
2023-05-13T21:36:01.542Z,3.20
2023-05-13T21:38:12.632Z,2.87
2023-05-13T21:40:17.512Z,3.43
2023-05-13T21:42:20.743Z,3.07
2023-05-13T21:44:24.809Z,3.47
2023-05-13T21:46:27.945Z,2.50
2023-05-13T21:48:30.683Z,2.90
2023-05-13T21:50:33.679Z,3.10
2023-05-13T21:52:36.475Z,2.93
2023-05-13T21:54:39.548Z,3.50
2023-05-13T21:56:43.693Z,3.27
2023-05-13T21:58:47.589Z,3.17
2023-05-13T22:00:54.846Z,2.60
2023-05-13T22:03:00.170Z,2.70
2023-05-13T22:05:03.284Z,2.80
2023-05-13T22:07:06.256Z,2.90
2023-05-13T22:09:09.457Z,3.10
2023-05-13T22:11:12.620Z,2.90
2023-05-13T22:13:16.940Z,3.00
2023-05-13T22:15:19.856Z,3.20
2023-05-13T22:17:23.379Z,3.00
2023-05-13T22:19:29.039Z,3.00
2023-05-13T22:21:32.367Z,3.43
2023-05-13T22:23:35.553Z,3.20
2023-05-13T22:25:38.383Z,3.10
2023-05-13T22:27:41.692Z,2.67
2023-05-13T22:29:46.478Z,2.70
2023-05-13T22:31:49.396Z,3.60
2023-05-13T22:33:52.522Z,2.93
2023-05-13T22:35:57.880Z,3.00
2023-05-13T22:38:01.076Z,3.40
2023-05-13T22:40:05.792Z,3.40
2023-05-13T22:42:08.896Z,3.10
2023-05-13T22:44:11.676Z,3.07
2023-05-13T22:46:17.928Z,2.83
2023-05-13T22:48:20.934Z,2.80
2023-05-13T22:50:24.730Z,2.90
2023-05-13T22:52:28.276Z,2.97
2023-05-13T22:54:35.022Z,3.17
2023-05-13T22:56:38.076Z,3.10
2023-05-13T22:58:41.532Z,3.30
2023-05-13T23:00:48.502Z,2.80
2023-05-13T23:02:53.503Z,2.97
2023-05-13T23:05:01.789Z,2.80
2023-05-13T23:07:04.755Z,3.07
2023-05-13T23:09:09.035Z,2.93
2023-05-13T23:11:11.855Z,2.80
2023-05-13T23:13:14.630Z,2.97
2023-05-13T23:15:17.616Z,2.60
2023-05-13T23:17:20.417Z,2.80
2023-05-13T23:19:25.942Z,2.20
2023-05-13T23:21:28.712Z,3.13
2023-05-13T23:23:31.940Z,2.90
2023-05-13T23:25:34.658Z,2.70
2023-05-13T23:27:38.730Z,2.73
2023-05-13T23:29:42.096Z,2.90
2023-05-13T23:31:45.101Z,2.50
2023-05-13T23:33:48.215Z,2.70
2023-05-13T23:35:54.866Z,2.77
2023-05-13T23:37:58.003Z,2.50
2023-05-13T23:40:02.326Z,2.60
2023-05-13T23:42:05.340Z,2.60
2023-05-13T23:44:08.520Z,2.70
2023-05-13T23:46:11.921Z,2.87
2023-05-13T23:48:14.926Z,3.00
2023-05-13T23:50:17.709Z,3.20
2023-05-13T23:52:22.337Z,2.60
2023-05-13T23:54:25.724Z,2.70
2023-05-13T23:56:28.556Z,2.70
2023-05-13T23:58:32.804Z,3.00
